New Street, Pennsylvania
Current Conditions -  °F | °C
As of 9:58 PM on Thursday 27 Nov 2014 (Local Time) from KMUI Reporting Station
Overcast Overcast  
Wind Chill: 29°   Ceiling: 8500
Heat Index: 33°   Visibility: 10mi
Dew Point: 28°   Wind: 5mph
Humidity: 82%   Direction: 260°W
Pressure: 30.11"   Gusts: NA
Location:  40.6882°N, 76.264°W
Report Text: KMUI 280258Z AUTO 26004KT 10SM FEW037 OVC085 01/M02 A3011 RMK AO2 SLP204 T00071021 53006 $
Loading
Personal Weather Stations






























Interactive Weather Map New forecast layout! Learn more

10-Day Weather Forecast

Advertisements
Track Severe Weather on mobile